sensor_id;sensor_type;location;lat;lon;timestamp;P1;durP1;ratioP1;P2;durP2;ratioP2
6282;SDS011;3174;53.486;9.568;2022-08-21T00:00:22;3.57;;;1.07;;
6282;SDS011;3174;53.486;9.568;2022-08-21T00:02:51;1.20;;;0.90;;
6282;SDS011;3174;53.486;9.568;2022-08-21T00:05:22;1.10;;;0.90;;
6282;SDS011;3174;53.486;9.568;2022-08-21T00:07:51;3.23;;;1.37;;
6282;SDS011;3174;53.486;9.568;2022-08-21T00:10:19;2.03;;;1.30;;
6282;SDS011;3174;53.486;9.568;2022-08-21T00:12:48;1.37;;;0.90;;
6282;SDS011;3174;53.486;9.568;2022-08-21T00:15:19;4.03;;;1.30;;
6282;SDS011;3174;53.486;9.568;2022-08-21T00:17:48;1.17;;;0.97;;
6282;SDS011;3174;53.486;9.568;2022-08-21T00:20:16;2.00;;;1.20;;
6282;SDS011;3174;53.486;9.568;2022-08-21T00:22:46;1.80;;;0.97;;
6282;SDS011;3174;53.486;9.568;2022-08-21T00:25:14;0.93;;;0.90;;
6282;SDS011;3174;53.486;9.568;2022-08-21T00:27:45;3.30;;;1.00;;
6282;SDS011;3174;53.486;9.568;2022-08-21T00:30:14;1.90;;;1.00;;
6282;SDS011;3174;53.486;9.568;2022-08-21T00:32:49;1.50;;;1.10;;
6282;SDS011;3174;53.486;9.568;2022-08-21T00:35:24;1.40;;;1.10;;
6282;SDS011;3174;53.486;9.568;2022-08-21T00:37:55;3.23;;;1.00;;
6282;SDS011;3174;53.486;9.568;2022-08-21T00:40:25;2.17;;;1.00;;
6282;SDS011;3174;53.486;9.568;2022-08-21T00:42:58;1.60;;;0.80;;
6282;SDS011;3174;53.486;9.568;2022-08-21T00:45:27;2.20;;;1.00;;
6282;SDS011;3174;53.486;9.568;2022-08-21T00:47:56;2.47;;;1.10;;
6282;SDS011;3174;53.486;9.568;2022-08-21T00:50:26;2.30;;;1.13;;
6282;SDS011;3174;53.486;9.568;2022-08-21T00:52:58;5.87;;;1.23;;
6282;SDS011;3174;53.486;9.568;2022-08-21T00:55:28;2.97;;;1.20;;
6282;SDS011;3174;53.486;9.568;2022-08-21T00:57:59;1.13;;;0.93;;
6282;SDS011;3174;53.486;9.568;2022-08-21T01:00:29;2.30;;;1.10;;
6282;SDS011;3174;53.486;9.568;2022-08-21T01:03:00;3.07;;;1.07;;
6282;SDS011;3174;53.486;9.568;2022-08-21T01:05:34;5.30;;;1.40;;
6282;SDS011;3174;53.486;9.568;2022-08-21T01:08:04;2.87;;;1.27;;
6282;SDS011;3174;53.486;9.568;2022-08-21T01:10:32;1.83;;;1.10;;
6282;SDS011;3174;53.486;9.568;2022-08-21T01:13:03;2.10;;;1.10;;
6282;SDS011;3174;53.486;9.568;2022-08-21T01:15:34;4.00;;;1.40;;
6282;SDS011;3174;53.486;9.568;2022-08-21T01:18:05;2.67;;;1.40;;
6282;SDS011;3174;53.486;9.568;2022-08-21T01:20:34;1.60;;;1.20;;
6282;SDS011;3174;53.486;9.568;2022-08-21T01:23:06;1.67;;;1.00;;
6282;SDS011;3174;53.486;9.568;2022-08-21T01:25:34;1.70;;;1.27;;
6282;SDS011;3174;53.486;9.568;2022-08-21T01:28:04;1.03;;;0.80;;
6282;SDS011;3174;53.486;9.568;2022-08-21T01:30:42;1.87;;;1.10;;
6282;SDS011;3174;53.486;9.568;2022-08-21T01:33:10;2.53;;;1.10;;
6282;SDS011;3174;53.486;9.568;2022-08-21T01:35:38;2.17;;;1.30;;
6282;SDS011;3174;53.486;9.568;2022-08-21T01:38:08;1.57;;;1.30;;
6282;SDS011;3174;53.486;9.568;2022-08-21T01:40:36;4.57;;;2.07;;
6282;SDS011;3174;53.486;9.568;2022-08-21T01:43:04;2.67;;;1.20;;
6282;SDS011;3174;53.486;9.568;2022-08-21T01:45:32;1.43;;;1.07;;
6282;SDS011;3174;53.486;9.568;2022-08-21T01:48:00;1.40;;;1.20;;
6282;SDS011;3174;53.486;9.568;2022-08-21T01:50:29;1.00;;;0.90;;
6282;SDS011;3174;53.486;9.568;2022-08-21T01:52:57;3.40;;;1.00;;
6282;SDS011;3174;53.486;9.568;2022-08-21T01:55:27;1.60;;;1.10;;
6282;SDS011;3174;53.486;9.568;2022-08-21T01:57:56;2.00;;;1.20;;
6282;SDS011;3174;53.486;9.568;2022-08-21T02:00:25;2.07;;;1.03;;
6282;SDS011;3174;53.486;9.568;2022-08-21T02:02:54;4.10;;;1.30;;
6282;SDS011;3174;53.486;9.568;2022-08-21T02:05:22;3.87;;;1.30;;
6282;SDS011;3174;53.486;9.568;2022-08-21T02:07:52;2.93;;;1.53;;
6282;SDS011;3174;53.486;9.568;2022-08-21T02:10:22;2.17;;;1.50;;
6282;SDS011;3174;53.486;9.568;2022-08-21T02:12:52;1.93;;;1.07;;
6282;SDS011;3174;53.486;9.568;2022-08-21T02:15:21;1.47;;;1.10;;
6282;SDS011;3174;53.486;9.568;2022-08-21T02:17:51;3.07;;;1.23;;
6282;SDS011;3174;53.486;9.568;2022-08-21T02:20:22;4.33;;;1.20;;
6282;SDS011;3174;53.486;9.568;2022-08-21T02:22:51;1.77;;;1.20;;
6282;SDS011;3174;53.486;9.568;2022-08-21T02:25:20;1.50;;;0.97;;
6282;SDS011;3174;53.486;9.568;2022-08-21T02:27:50;2.40;;;0.90;;
6282;SDS011;3174;53.486;9.568;2022-08-21T02:30:21;1.50;;;1.10;;
6282;SDS011;3174;53.486;9.568;2022-08-21T02:32:50;1.33;;;0.90;;
6282;SDS011;3174;53.486;9.568;2022-08-21T02:35:19;3.33;;;1.47;;
6282;SDS011;3174;53.486;9.568;2022-08-21T02:37:48;8.00;;;1.77;;
6282;SDS011;3174;53.486;9.568;2022-08-21T02:40:18;2.43;;;0.90;;
6282;SDS011;3174;53.486;9.568;2022-08-21T02:42:48;1.20;;;0.90;;
6282;SDS011;3174;53.486;9.568;2022-08-21T02:45:16;2.13;;;1.00;;
6282;SDS011;3174;53.486;9.568;2022-08-21T02:47:50;1.77;;;1.00;;
6282;SDS011;3174;53.486;9.568;2022-08-21T02:50:20;2.27;;;0.93;;
6282;SDS011;3174;53.486;9.568;2022-08-21T02:52:53;1.87;;;1.10;;
6282;SDS011;3174;53.486;9.568;2022-08-21T02:55:23;3.27;;;1.30;;
6282;SDS011;3174;53.486;9.568;2022-08-21T02:57:53;4.30;;;1.20;;
6282;SDS011;3174;53.486;9.568;2022-08-21T03:00:22;2.63;;;1.20;;
6282;SDS011;3174;53.486;9.568;2022-08-21T03:02:53;2.07;;;1.20;;
6282;SDS011;3174;53.486;9.568;2022-08-21T03:05:23;1.27;;;0.90;;
6282;SDS011;3174;53.486;9.568;2022-08-21T03:07:52;3.97;;;1.17;;
6282;SDS011;3174;53.486;9.568;2022-08-21T03:10:21;0.80;;;0.80;;
6282;SDS011;3174;53.486;9.568;2022-08-21T03:12:51;1.33;;;1.00;;
6282;SDS011;3174;53.486;9.568;2022-08-21T03:15:21;3.90;;;1.70;;
6282;SDS011;3174;53.486;9.568;2022-08-21T03:17:51;2.47;;;1.30;;
6282;SDS011;3174;53.486;9.568;2022-08-21T03:20:23;5.20;;;1.50;;
6282;SDS011;3174;53.486;9.568;2022-08-21T03:22:53;1.23;;;1.10;;
6282;SDS011;3174;53.486;9.568;2022-08-21T03:25:23;3.13;;;1.10;;
6282;SDS011;3174;53.486;9.568;2022-08-21T03:28:07;2.43;;;1.73;;
6282;SDS011;3174;53.486;9.568;2022-08-21T03:30:39;1.20;;;0.90;;
6282;SDS011;3174;53.486;9.568;2022-08-21T03:33:07;4.33;;;1.10;;
6282;SDS011;3174;53.486;9.568;2022-08-21T03:35:42;1.23;;;0.97;;
6282;SDS011;3174;53.486;9.568;2022-08-21T03:38:11;1.07;;;0.93;;
6282;SDS011;3174;53.486;9.568;2022-08-21T03:40:40;1.27;;;1.00;;
6282;SDS011;3174;53.486;9.568;2022-08-21T03:43:09;1.40;;;1.17;;
6282;SDS011;3174;53.486;9.568;2022-08-21T03:45:37;1.20;;;1.10;;
6282;SDS011;3174;53.486;9.568;2022-08-21T03:48:06;4.70;;;1.40;;
6282;SDS011;3174;53.486;9.568;2022-08-21T03:50:37;2.20;;;1.63;;
6282;SDS011;3174;53.486;9.568;2022-08-21T03:53:08;2.20;;;1.70;;
6282;SDS011;3174;53.486;9.568;2022-08-21T03:55:43;3.17;;;1.50;;
6282;SDS011;3174;53.486;9.568;2022-08-21T03:58:12;2.30;;;1.40;;
6282;SDS011;3174;53.486;9.568;2022-08-21T04:00:42;1.20;;;1.00;;
6282;SDS011;3174;53.486;9.568;2022-08-21T04:03:10;1.57;;;0.97;;
6282;SDS011;3174;53.486;9.568;2022-08-21T04:05:38;2.60;;;1.30;;
6282;SDS011;3174;53.486;9.568;2022-08-21T04:08:09;1.90;;;1.00;;
6282;SDS011;3174;53.486;9.568;2022-08-21T04:10:37;2.60;;;1.00;;
6282;SDS011;3174;53.486;9.568;2022-08-21T04:13:06;2.17;;;1.10;;
6282;SDS011;3174;53.486;9.568;2022-08-21T04:15:35;3.33;;;1.27;;
6282;SDS011;3174;53.486;9.568;2022-08-21T04:18:04;2.90;;;1.00;;
6282;SDS011;3174;53.486;9.568;2022-08-21T04:20:32;1.77;;;0.90;;
6282;SDS011;3174;53.486;9.568;2022-08-21T04:23:01;1.83;;;1.20;;
6282;SDS011;3174;53.486;9.568;2022-08-21T04:25:30;1.27;;;1.00;;
6282;SDS011;3174;53.486;9.568;2022-08-21T04:27:58;1.97;;;1.13;;
6282;SDS011;3174;53.486;9.568;2022-08-21T04:30:28;1.10;;;1.00;;
6282;SDS011;3174;53.486;9.568;2022-08-21T04:32:56;5.33;;;1.30;;
6282;SDS011;3174;53.486;9.568;2022-08-21T04:35:25;1.60;;;1.10;;
6282;SDS011;3174;53.486;9.568;2022-08-21T04:37:54;3.03;;;1.27;;
6282;SDS011;3174;53.486;9.568;2022-08-21T04:40:23;2.30;;;1.03;;
6282;SDS011;3174;53.486;9.568;2022-08-21T04:42:54;1.80;;;1.13;;
6282;SDS011;3174;53.486;9.568;2022-08-21T04:45:26;1.70;;;1.30;;
6282;SDS011;3174;53.486;9.568;2022-08-21T04:47:56;1.93;;;1.10;;
6282;SDS011;3174;53.486;9.568;2022-08-21T04:50:26;1.20;;;1.00;;
6282;SDS011;3174;53.486;9.568;2022-08-21T04:52:57;1.77;;;1.00;;
6282;SDS011;3174;53.486;9.568;2022-08-21T04:55:26;0.80;;;0.80;;
6282;SDS011;3174;53.486;9.568;2022-08-21T04:57:56;2.70;;;1.20;;
6282;SDS011;3174;53.486;9.568;2022-08-21T05:00:24;1.80;;;1.33;;
6282;SDS011;3174;53.486;9.568;2022-08-21T05:02:53;2.10;;;1.50;;
6282;SDS011;3174;53.486;9.568;2022-08-21T05:05:26;3.53;;;1.10;;
6282;SDS011;3174;53.486;9.568;2022-08-21T05:07:55;3.63;;;1.20;;
6282;SDS011;3174;53.486;9.568;2022-08-21T05:10:24;3.30;;;1.20;;
6282;SDS011;3174;53.486;9.568;2022-08-21T05:12:52;1.67;;;1.43;;
6282;SDS011;3174;53.486;9.568;2022-08-21T05:15:22;4.23;;;1.50;;
6282;SDS011;3174;53.486;9.568;2022-08-21T05:17:50;3.70;;;1.80;;
6282;SDS011;3174;53.486;9.568;2022-08-21T05:20:27;2.77;;;1.47;;
6282;SDS011;3174;53.486;9.568;2022-08-21T05:22:55;2.20;;;1.57;;
6282;SDS011;3174;53.486;9.568;2022-08-21T05:25:24;2.90;;;1.40;;
6282;SDS011;3174;53.486;9.568;2022-08-21T05:27:53;1.30;;;1.00;;
6282;SDS011;3174;53.486;9.568;2022-08-21T05:30:27;4.00;;;2.10;;
6282;SDS011;3174;53.486;9.568;2022-08-21T05:32:56;2.77;;;1.20;;
6282;SDS011;3174;53.486;9.568;2022-08-21T05:35:26;1.80;;;1.13;;
6282;SDS011;3174;53.486;9.568;2022-08-21T05:37:54;1.80;;;1.30;;
6282;SDS011;3174;53.486;9.568;2022-08-21T05:40:23;2.23;;;1.50;;
6282;SDS011;3174;53.486;9.568;2022-08-21T05:42:52;2.03;;;1.10;;
6282;SDS011;3174;53.486;9.568;2022-08-21T05:45:21;1.50;;;1.40;;
6282;SDS011;3174;53.486;9.568;2022-08-21T05:48:12;3.17;;;1.10;;
6282;SDS011;3174;53.486;9.568;2022-08-21T05:50:42;3.57;;;1.43;;
6282;SDS011;3174;53.486;9.568;2022-08-21T05:53:10;2.53;;;1.43;;
6282;SDS011;3174;53.486;9.568;2022-08-21T05:55:39;2.40;;;1.30;;
6282;SDS011;3174;53.486;9.568;2022-08-21T05:58:12;1.10;;;0.90;;
6282;SDS011;3174;53.486;9.568;2022-08-21T06:00:40;1.90;;;1.00;;
6282;SDS011;3174;53.486;9.568;2022-08-21T06:03:13;1.93;;;1.13;;
6282;SDS011;3174;53.486;9.568;2022-08-21T06:05:43;1.30;;;0.90;;
6282;SDS011;3174;53.486;9.568;2022-08-21T06:08:13;1.87;;;1.23;;
6282;SDS011;3174;53.486;9.568;2022-08-21T06:10:41;5.30;;;1.87;;
6282;SDS011;3174;53.486;9.568;2022-08-21T06:13:10;1.90;;;1.67;;
6282;SDS011;3174;53.486;9.568;2022-08-21T06:15:38;5.57;;;1.50;;
6282;SDS011;3174;53.486;9.568;2022-08-21T06:18:06;3.40;;;1.77;;
6282;SDS011;3174;53.486;9.568;2022-08-21T06:20:36;2.90;;;1.67;;
6282;SDS011;3174;53.486;9.568;2022-08-21T06:23:05;3.43;;;2.10;;
6282;SDS011;3174;53.486;9.568;2022-08-21T06:25:33;4.33;;;1.73;;
6282;SDS011;3174;53.486;9.568;2022-08-21T06:28:02;2.23;;;1.50;;
6282;SDS011;3174;53.486;9.568;2022-08-21T06:30:31;2.83;;;1.60;;
6282;SDS011;3174;53.486;9.568;2022-08-21T06:33:00;3.57;;;1.63;;
6282;SDS011;3174;53.486;9.568;2022-08-21T06:35:28;4.00;;;1.60;;
6282;SDS011;3174;53.486;9.568;2022-08-21T06:37:58;2.57;;;2.07;;
6282;SDS011;3174;53.486;9.568;2022-08-21T06:40:27;6.53;;;1.60;;
6282;SDS011;3174;53.486;9.568;2022-08-21T06:43:04;4.83;;;1.60;;
6282;SDS011;3174;53.486;9.568;2022-08-21T06:45:33;1.90;;;1.13;;
6282;SDS011;3174;53.486;9.568;2022-08-21T06:48:01;3.80;;;1.80;;
6282;SDS011;3174;53.486;9.568;2022-08-21T06:50:30;4.97;;;1.50;;
6282;SDS011;3174;53.486;9.568;2022-08-21T06:53:00;2.43;;;1.60;;
6282;SDS011;3174;53.486;9.568;2022-08-21T06:55:32;2.83;;;1.43;;
6282;SDS011;3174;53.486;9.568;2022-08-21T06:58:00;2.43;;;1.40;;
6282;SDS011;3174;53.486;9.568;2022-08-21T07:00:28;2.57;;;1.50;;
6282;SDS011;3174;53.486;9.568;2022-08-21T07:02:56;3.57;;;1.63;;
6282;SDS011;3174;53.486;9.568;2022-08-21T07:05:25;4.70;;;1.57;;
6282;SDS011;3174;53.486;9.568;2022-08-21T07:07:54;2.90;;;1.50;;
6282;SDS011;3174;53.486;9.568;2022-08-21T07:10:24;2.43;;;1.60;;
6282;SDS011;3174;53.486;9.568;2022-08-21T07:12:53;3.27;;;1.13;;
6282;SDS011;3174;53.486;9.568;2022-08-21T07:15:27;6.30;;;1.77;;
6282;SDS011;3174;53.486;9.568;2022-08-21T07:17:56;2.63;;;1.43;;
6282;SDS011;3174;53.486;9.568;2022-08-21T07:20:25;3.97;;;1.50;;
6282;SDS011;3174;53.486;9.568;2022-08-21T07:22:54;4.23;;;1.40;;
6282;SDS011;3174;53.486;9.568;2022-08-21T07:25:24;6.97;;;1.80;;
6282;SDS011;3174;53.486;9.568;2022-08-21T07:27:52;2.63;;;1.10;;
6282;SDS011;3174;53.486;9.568;2022-08-21T07:30:21;4.43;;;1.70;;
6282;SDS011;3174;53.486;9.568;2022-08-21T07:32:49;3.13;;;1.23;;
6282;SDS011;3174;53.486;9.568;2022-08-21T07:35:18;5.07;;;1.80;;
6282;SDS011;3174;53.486;9.568;2022-08-21T07:37:47;2.67;;;2.00;;
6282;SDS011;3174;53.486;9.568;2022-08-21T07:40:15;6.63;;;2.17;;
6282;SDS011;3174;53.486;9.568;2022-08-21T07:42:47;3.50;;;1.97;;
6282;SDS011;3174;53.486;9.568;2022-08-21T07:45:18;5.70;;;1.60;;
6282;SDS011;3174;53.486;9.568;2022-08-21T07:47:47;5.47;;;1.90;;
6282;SDS011;3174;53.486;9.568;2022-08-21T07:50:22;6.37;;;2.07;;
6282;SDS011;3174;53.486;9.568;2022-08-21T07:52:50;3.70;;;1.77;;
6282;SDS011;3174;53.486;9.568;2022-08-21T07:55:18;4.83;;;1.73;;
6282;SDS011;3174;53.486;9.568;2022-08-21T07:57:52;4.47;;;1.90;;
6282;SDS011;3174;53.486;9.568;2022-08-21T08:00:22;6.70;;;2.00;;
6282;SDS011;3174;53.486;9.568;2022-08-21T08:02:51;5.57;;;2.13;;
6282;SDS011;3174;53.486;9.568;2022-08-21T08:05:24;4.57;;;1.97;;
6282;SDS011;3174;53.486;9.568;2022-08-21T08:07:54;4.97;;;2.10;;
6282;SDS011;3174;53.486;9.568;2022-08-21T08:10:22;4.30;;;1.73;;
6282;SDS011;3174;53.486;9.568;2022-08-21T08:12:51;2.37;;;1.73;;
6282;SDS011;3174;53.486;9.568;2022-08-21T08:15:22;2.83;;;1.50;;
6282;SDS011;3174;53.486;9.568;2022-08-21T08:17:51;4.50;;;1.60;;
6282;SDS011;3174;53.486;9.568;2022-08-21T08:20:21;6.40;;;2.07;;
6282;SDS011;3174;53.486;9.568;2022-08-21T08:22:53;5.47;;;1.90;;
6282;SDS011;3174;53.486;9.568;2022-08-21T08:25:23;4.27;;;1.80;;
6282;SDS011;3174;53.486;9.568;2022-08-21T08:27:53;4.30;;;1.77;;
6282;SDS011;3174;53.486;9.568;2022-08-21T08:30:21;5.93;;;1.90;;
6282;SDS011;3174;53.486;9.568;2022-08-21T08:32:53;3.77;;;1.80;;
6282;SDS011;3174;53.486;9.568;2022-08-21T08:35:26;8.97;;;2.00;;
6282;SDS011;3174;53.486;9.568;2022-08-21T08:37:56;3.10;;;1.50;;
6282;SDS011;3174;53.486;9.568;2022-08-21T08:40:27;5.50;;;1.77;;
6282;SDS011;3174;53.486;9.568;2022-08-21T08:43:05;7.00;;;2.10;;
6282;SDS011;3174;53.486;9.568;2022-08-21T08:45:36;5.40;;;1.87;;
6282;SDS011;3174;53.486;9.568;2022-08-21T08:48:11;4.33;;;1.87;;
6282;SDS011;3174;53.486;9.568;2022-08-21T08:50:44;4.40;;;1.90;;
6282;SDS011;3174;53.486;9.568;2022-08-21T08:53:17;5.40;;;1.80;;
6282;SDS011;3174;53.486;9.568;2022-08-21T08:55:48;4.27;;;1.90;;
6282;SDS011;3174;53.486;9.568;2022-08-21T08:58:23;5.40;;;1.80;;
6282;SDS011;3174;53.486;9.568;2022-08-21T09:00:56;3.53;;;2.13;;
6282;SDS011;3174;53.486;9.568;2022-08-21T09:03:25;5.47;;;2.00;;
6282;SDS011;3174;53.486;9.568;2022-08-21T09:05:55;3.00;;;1.85;;
6282;SDS011;3174;53.486;9.568;2022-08-21T09:08:37;5.40;;;2.08;;
6282;SDS011;3174;53.486;9.568;2022-08-21T09:11:20;3.78;;;1.92;;
6282;SDS011;3174;53.486;9.568;2022-08-21T09:13:58;4.13;;;1.95;;
6282;SDS011;3174;53.486;9.568;2022-08-21T09:16:35;3.85;;;2.03;;
6282;SDS011;3174;53.486;9.568;2022-08-21T09:19:10;4.38;;;1.83;;
6282;SDS011;3174;53.486;9.568;2022-08-21T09:21:53;6.80;;;2.88;;
6282;SDS011;3174;53.486;9.568;2022-08-21T09:24:29;4.22;;;2.05;;
6282;SDS011;3174;53.486;9.568;2022-08-21T09:27:02;3.45;;;1.85;;
6282;SDS011;3174;53.486;9.568;2022-08-21T09:29:34;5.53;;;1.90;;
6282;SDS011;3174;53.486;9.568;2022-08-21T09:32:10;6.90;;;1.80;;
6282;SDS011;3174;53.486;9.568;2022-08-21T09:34:54;7.50;;;1.80;;
6282;SDS011;3174;53.486;9.568;2022-08-21T09:37:24;2.85;;;1.48;;
6282;SDS011;3174;53.486;9.568;2022-08-21T09:39:53;6.97;;;1.95;;
6282;SDS011;3174;53.486;9.568;2022-08-21T09:42:22;4.88;;;1.85;;
6282;SDS011;3174;53.486;9.568;2022-08-21T09:45:05;5.18;;;1.80;;
6282;SDS011;3174;53.486;9.568;2022-08-21T09:47:39;5.07;;;1.60;;
6282;SDS011;3174;53.486;9.568;2022-08-21T09:50:08;4.85;;;1.48;;
6282;SDS011;3174;53.486;9.568;2022-08-21T09:52:42;7.10;;;2.13;;
6282;SDS011;3174;53.486;9.568;2022-08-21T09:55:20;3.35;;;1.52;;
6282;SDS011;3174;53.486;9.568;2022-08-21T09:58:09;2.83;;;1.55;;
6282;SDS011;3174;53.486;9.568;2022-08-21T10:00:42;1.77;;;1.40;;
6282;SDS011;3174;53.486;9.568;2022-08-21T10:03:12;4.72;;;1.40;;
6282;SDS011;3174;53.486;9.568;2022-08-21T10:05:53;4.68;;;1.55;;
6282;SDS011;3174;53.486;9.568;2022-08-21T10:08:24;3.83;;;1.75;;
6282;SDS011;3174;53.486;9.568;2022-08-21T10:10:56;3.40;;;1.70;;
6282;SDS011;3174;53.486;9.568;2022-08-21T10:13:36;4.38;;;1.50;;
6282;SDS011;3174;53.486;9.568;2022-08-21T10:16:15;3.25;;;1.55;;
6282;SDS011;3174;53.486;9.568;2022-08-21T10:18:55;1.83;;;1.40;;
6282;SDS011;3174;53.486;9.568;2022-08-21T10:21:30;1.63;;;1.27;;
6282;SDS011;3174;53.486;9.568;2022-08-21T10:24:03;8.85;;;1.88;;
6282;SDS011;3174;53.486;9.568;2022-08-21T10:26:38;4.22;;;1.60;;
6282;SDS011;3174;53.486;9.568;2022-08-21T10:29:14;2.20;;;1.50;;
6282;SDS011;3174;53.486;9.568;2022-08-21T10:31:54;2.47;;;1.50;;
6282;SDS011;3174;53.486;9.568;2022-08-21T10:34:29;1.73;;;1.20;;
6282;SDS011;3174;53.486;9.568;2022-08-21T10:37:08;3.08;;;1.55;;
6282;SDS011;3174;53.486;9.568;2022-08-21T10:39:44;3.20;;;1.40;;
6282;SDS011;3174;53.486;9.568;2022-08-21T10:42:20;3.60;;;1.58;;
6282;SDS011;3174;53.486;9.568;2022-08-21T10:44:57;2.03;;;1.42;;
6282;SDS011;3174;53.486;9.568;2022-08-21T10:47:34;3.95;;;1.58;;
6282;SDS011;3174;53.486;9.568;2022-08-21T10:50:05;4.10;;;1.80;;
6282;SDS011;3174;53.486;9.568;2022-08-21T10:52:45;1.75;;;1.17;;
6282;SDS011;3174;53.486;9.568;2022-08-21T10:55:22;1.80;;;1.40;;
6282;SDS011;3174;53.486;9.568;2022-08-21T10:57:54;3.00;;;1.30;;
6282;SDS011;3174;53.486;9.568;2022-08-21T11:00:26;1.35;;;1.05;;
6282;SDS011;3174;53.486;9.568;2022-08-21T11:03:00;5.40;;;1.50;;
6282;SDS011;3174;53.486;9.568;2022-08-21T11:05:31;1.45;;;1.30;;
6282;SDS011;3174;53.486;9.568;2022-08-21T11:08:02;3.83;;;1.30;;
6282;SDS011;3174;53.486;9.568;2022-08-21T11:10:36;1.67;;;1.20;;
6282;SDS011;3174;53.486;9.568;2022-08-21T11:13:25;2.63;;;1.30;;
6282;SDS011;3174;53.486;9.568;2022-08-21T11:15:58;3.38;;;1.40;;
6282;SDS011;3174;53.486;9.568;2022-08-21T11:18:32;2.80;;;1.45;;
6282;SDS011;3174;53.486;9.568;2022-08-21T11:21:05;2.42;;;1.45;;
6282;SDS011;3174;53.486;9.568;2022-08-21T11:23:40;4.43;;;1.38;;
6282;SDS011;3174;53.486;9.568;2022-08-21T11:26:13;2.47;;;1.38;;
6282;SDS011;3174;53.486;9.568;2022-08-21T11:28:47;2.47;;;1.33;;
6282;SDS011;3174;53.486;9.568;2022-08-21T11:31:23;1.55;;;1.20;;
6282;SDS011;3174;53.486;9.568;2022-08-21T11:34:12;2.15;;;1.58;;
6282;SDS011;3174;53.486;9.568;2022-08-21T11:36:46;3.42;;;1.30;;
6282;SDS011;3174;53.486;9.568;2022-08-21T11:39:22;2.88;;;1.38;;
6282;SDS011;3174;53.486;9.568;2022-08-21T11:41:54;2.25;;;1.17;;
6282;SDS011;3174;53.486;9.568;2022-08-21T11:44:37;3.60;;;1.30;;
6282;SDS011;3174;53.486;9.568;2022-08-21T11:47:15;1.95;;;1.30;;
6282;SDS011;3174;53.486;9.568;2022-08-21T11:49:49;1.58;;;1.40;;
6282;SDS011;3174;53.486;9.568;2022-08-21T11:52:22;1.98;;;1.30;;
6282;SDS011;3174;53.486;9.568;2022-08-21T11:54:58;2.30;;;1.40;;
6282;SDS011;3174;53.486;9.568;2022-08-21T11:57:29;1.95;;;1.33;;
6282;SDS011;3174;53.486;9.568;2022-08-21T12:00:03;2.30;;;1.25;;
6282;SDS011;3174;53.486;9.568;2022-08-21T12:02:35;2.00;;;1.30;;
6282;SDS011;3174;53.486;9.568;2022-08-21T12:05:25;2.95;;;1.65;;
6282;SDS011;3174;53.486;9.568;2022-08-21T12:08:03;2.10;;;1.10;;
6282;SDS011;3174;53.486;9.568;2022-08-21T12:10:38;1.25;;;1.13;;
6282;SDS011;3174;53.486;9.568;2022-08-21T12:13:11;2.58;;;1.20;;
6282;SDS011;3174;53.486;9.568;2022-08-21T12:16:10;3.25;;;1.10;;
6282;SDS011;3174;53.486;9.568;2022-08-21T12:18:39;2.40;;;1.40;;
6282;SDS011;3174;53.486;9.568;2022-08-21T12:21:19;1.73;;;1.20;;
6282;SDS011;3174;53.486;9.568;2022-08-21T12:23:57;3.38;;;1.60;;
6282;SDS011;3174;53.486;9.568;2022-08-21T12:26:29;2.33;;;1.20;;
6282;SDS011;3174;53.486;9.568;2022-08-21T12:29:05;2.95;;;1.08;;
6282;SDS011;3174;53.486;9.568;2022-08-21T12:31:47;2.65;;;1.20;;
6282;SDS011;3174;53.486;9.568;2022-08-21T12:34:17;2.08;;;1.10;;
6282;SDS011;3174;53.486;9.568;2022-08-21T12:36:49;3.38;;;1.50;;
6282;SDS011;3174;53.486;9.568;2022-08-21T12:39:22;2.10;;;1.30;;
6282;SDS011;3174;53.486;9.568;2022-08-21T12:41:54;1.38;;;0.98;;
6282;SDS011;3174;53.486;9.568;2022-08-21T12:44:28;1.73;;;1.10;;
6282;SDS011;3174;53.486;9.568;2022-08-21T12:47:03;2.13;;;1.30;;
6282;SDS011;3174;53.486;9.568;2022-08-21T12:49:35;1.95;;;1.25;;
6282;SDS011;3174;53.486;9.568;2022-08-21T12:52:07;3.35;;;1.20;;
6282;SDS011;3174;53.486;9.568;2022-08-21T12:54:39;2.53;;;1.35;;
6282;SDS011;3174;53.486;9.568;2022-08-21T12:57:16;1.25;;;1.15;;
6282;SDS011;3174;53.486;9.568;2022-08-21T12:59:54;2.20;;;1.33;;
6282;SDS011;3174;53.486;9.568;2022-08-21T13:02:24;2.38;;;1.38;;
6282;SDS011;3174;53.486;9.568;2022-08-21T13:04:54;1.58;;;1.00;;
6282;SDS011;3174;53.486;9.568;2022-08-21T13:07:28;4.95;;;1.42;;
6282;SDS011;3174;53.486;9.568;2022-08-21T13:09:59;4.57;;;1.13;;
6282;SDS011;3174;53.486;9.568;2022-08-21T13:12:29;3.08;;;1.30;;
6282;SDS011;3174;53.486;9.568;2022-08-21T13:14:58;2.40;;;1.48;;
6282;SDS011;3174;53.486;9.568;2022-08-21T13:17:36;3.47;;;1.30;;
6282;SDS011;3174;53.486;9.568;2022-08-21T13:20:19;1.70;;;1.13;;
6282;SDS011;3174;53.486;9.568;2022-08-21T13:22:51;1.73;;;1.10;;
6282;SDS011;3174;53.486;9.568;2022-08-21T13:25:21;3.33;;;1.05;;
6282;SDS011;3174;53.486;9.568;2022-08-21T13:27:57;2.25;;;1.10;;
6282;SDS011;3174;53.486;9.568;2022-08-21T13:30:27;4.70;;;1.20;;
6282;SDS011;3174;53.486;9.568;2022-08-21T13:32:58;5.95;;;1.42;;
6282;SDS011;3174;53.486;9.568;2022-08-21T13:35:28;2.15;;;1.30;;
6282;SDS011;3174;53.486;9.568;2022-08-21T13:37:59;2.80;;;1.00;;
6282;SDS011;3174;53.486;9.568;2022-08-21T13:40:29;5.85;;;1.20;;
6282;SDS011;3174;53.486;9.568;2022-08-21T13:43:00;2.70;;;1.20;;
6282;SDS011;3174;53.486;9.568;2022-08-21T13:45:30;2.75;;;1.20;;
6282;SDS011;3174;53.486;9.568;2022-08-21T13:48:00;2.70;;;1.20;;
6282;SDS011;3174;53.486;9.568;2022-08-21T13:50:32;1.98;;;1.20;;
6282;SDS011;3174;53.486;9.568;2022-08-21T13:53:04;5.63;;;1.27;;
6282;SDS011;3174;53.486;9.568;2022-08-21T13:55:34;3.00;;;1.33;;
6282;SDS011;3174;53.486;9.568;2022-08-21T13:58:04;2.88;;;1.30;;
6282;SDS011;3174;53.486;9.568;2022-08-21T14:00:34;2.60;;;1.10;;
6282;SDS011;3174;53.486;9.568;2022-08-21T14:03:04;2.72;;;1.20;;
6282;SDS011;3174;53.486;9.568;2022-08-21T14:05:35;3.10;;;1.05;;
6282;SDS011;3174;53.486;9.568;2022-08-21T14:08:07;1.88;;;1.30;;
6282;SDS011;3174;53.486;9.568;2022-08-21T14:10:41;3.88;;;1.30;;
6282;SDS011;3174;53.486;9.568;2022-08-21T14:13:21;2.45;;;1.10;;
6282;SDS011;3174;53.486;9.568;2022-08-21T14:15:56;3.92;;;1.38;;
6282;SDS011;3174;53.486;9.568;2022-08-21T14:18:25;1.60;;;1.20;;
6282;SDS011;3174;53.486;9.568;2022-08-21T14:21:03;1.92;;;1.05;;
6282;SDS011;3174;53.486;9.568;2022-08-21T14:23:33;2.38;;;1.15;;
6282;SDS011;3174;53.486;9.568;2022-08-21T14:26:02;2.38;;;1.10;;
6282;SDS011;3174;53.486;9.568;2022-08-21T14:28:32;1.95;;;1.30;;
6282;SDS011;3174;53.486;9.568;2022-08-21T14:31:10;2.22;;;1.30;;
6282;SDS011;3174;53.486;9.568;2022-08-21T14:33:40;2.22;;;1.10;;
6282;SDS011;3174;53.486;9.568;2022-08-21T14:36:08;1.77;;;1.33;;
6282;SDS011;3174;53.486;9.568;2022-08-21T14:38:39;1.25;;;0.90;;
6282;SDS011;3174;53.486;9.568;2022-08-21T14:41:10;1.58;;;1.05;;
6282;SDS011;3174;53.486;9.568;2022-08-21T14:43:43;2.33;;;1.10;;
6282;SDS011;3174;53.486;9.568;2022-08-21T14:46:12;2.38;;;1.30;;
6282;SDS011;3174;53.486;9.568;2022-08-21T14:48:41;1.30;;;1.20;;
6282;SDS011;3174;53.486;9.568;2022-08-21T14:51:09;2.65;;;1.20;;
6282;SDS011;3174;53.486;9.568;2022-08-21T14:53:39;1.17;;;0.90;;
6282;SDS011;3174;53.486;9.568;2022-08-21T14:56:07;1.80;;;1.20;;
6282;SDS011;3174;53.486;9.568;2022-08-21T14:58:36;2.13;;;1.20;;
6282;SDS011;3174;53.486;9.568;2022-08-21T15:01:06;1.30;;;1.00;;
6282;SDS011;3174;53.486;9.568;2022-08-21T15:03:34;2.17;;;1.00;;
6282;SDS011;3174;53.486;9.568;2022-08-21T15:06:03;1.75;;;1.00;;
6282;SDS011;3174;53.486;9.568;2022-08-21T15:08:32;1.70;;;1.23;;
6282;SDS011;3174;53.486;9.568;2022-08-21T15:11:02;2.08;;;1.40;;
6282;SDS011;3174;53.486;9.568;2022-08-21T15:13:39;1.88;;;1.20;;
6282;SDS011;3174;53.486;9.568;2022-08-21T15:16:08;3.47;;;1.20;;
6282;SDS011;3174;53.486;9.568;2022-08-21T15:18:36;2.85;;;1.25;;
6282;SDS011;3174;53.486;9.568;2022-08-21T15:21:04;1.63;;;1.10;;
6282;SDS011;3174;53.486;9.568;2022-08-21T15:23:33;2.40;;;1.23;;
6282;SDS011;3174;53.486;9.568;2022-08-21T15:26:06;2.42;;;1.27;;
6282;SDS011;3174;53.486;9.568;2022-08-21T15:28:35;2.67;;;1.27;;
6282;SDS011;3174;53.486;9.568;2022-08-21T15:31:04;3.05;;;1.30;;
6282;SDS011;3174;53.486;9.568;2022-08-21T15:33:33;1.67;;;1.30;;
6282;SDS011;3174;53.486;9.568;2022-08-21T15:36:01;3.80;;;1.33;;
6282;SDS011;3174;53.486;9.568;2022-08-21T15:38:29;3.08;;;1.48;;
6282;SDS011;3174;53.486;9.568;2022-08-21T15:40:57;2.90;;;1.10;;